Time;durP1;ratioP1;P1;durP2;ratioP2;P2;SDS_P1;SDS_P2;PMS_P1;PMS_P2;Temp;Humidity;BMP_temperature;BMP_pressure;BME280_temperature;BME280_humidity;BME280_pressure;Samples;Min_cycle;Max_cycle;Signal;HPM_P1;HPM_P2
2023/12/21 00:00:10;;;;;;;2.45;0.80;;;5.50;99.90;;;;;;5043292;28;20021;-62
2023/12/21 00:02:35;;;;;;;;;;;5.60;99.90;;;;;;5041750;28;20727;-62
2023/12/21 00:05:06;;;;;;;2.50;0.90;;;5.60;99.90;;;;;;5042530;28;19912;-62
2023/12/21 00:07:32;;;;;;;2.03;0.52;;;5.60;99.90;;;;;;5040436;28;20028;-62
2023/12/21 00:09:58;;;;;;;2.17;0.50;;;5.60;99.90;;;;;;5042430;28;20124;-62
2023/12/21 00:12:31;;;;;;;1.58;0.55;;;5.60;99.90;;;;;;5041369;28;20061;-62
2023/12/21 00:14:57;;;;;;;1.55;0.40;;;5.60;99.90;;;;;;5042179;28;20481;-62
2023/12/21 00:17:25;;;;;;;1.83;0.63;;;5.70;99.90;;;;;;5045664;28;20029;-62
2023/12/21 00:19:56;;;;;;;2.40;0.60;;;5.70;99.90;;;;;;5043047;28;20060;-62
2023/12/21 00:22:24;;;;;;;2.08;0.32;;;5.70;99.90;;;;;;5040739;28;20142;-62
2023/12/21 00:24:55;;;;;;;1.50;0.43;;;5.70;99.90;;;;;;5043615;28;20462;-62
2023/12/21 00:27:23;;;;;;;1.60;0.60;;;5.60;99.90;;;;;;5041908;28;20041;-62
2023/12/21 00:29:49;;;;;;;1.38;0.40;;;5.60;99.90;;;;;;5040845;28;20060;-62
2023/12/21 00:32:16;;;;;;;1.67;0.45;;;5.60;99.90;;;;;;5041377;28;20162;-64
2023/12/21 00:34:42;;;;;;;2.13;0.57;;;5.50;99.90;;;;;;5041480;28;20033;-62
2023/12/21 00:37:21;;;;;;;1.75;0.30;;;5.50;99.90;;;;;;5039985;28;20034;-62
2023/12/21 00:39:49;;;;;;;0.45;0.20;;;5.50;99.90;;;;;;5041230;28;20446;-62
2023/12/21 00:42:14;;;;;;;0.40;0.25;;;5.50;99.90;;;;;;5040763;28;20029;-63
2023/12/21 00:44:40;;;;;;;0.70;0.30;;;5.40;99.90;;;;;;5044388;28;20389;-62
2023/12/21 00:47:06;;;;;;;0.60;0.20;;;5.50;99.90;;;;;;5042357;28;20044;-62
2023/12/21 00:49:31;;;;;;;0.30;0.20;;;5.50;99.90;;;;;;5040816;28;20398;-62
2023/12/21 00:52:03;;;;;;;1.10;0.47;;;5.50;99.90;;;;;;5041039;28;20104;-62
2023/12/21 00:54:31;;;;;;;0.65;0.25;;;5.50;99.90;;;;;;5040983;28;20037;-62
2023/12/21 00:56:59;;;;;;;1.13;0.25;;;5.50;99.90;;;;;;5041740;28;20052;-62
2023/12/21 00:59:25;;;;;;;1.27;0.50;;;5.60;99.90;;;;;;5041460;28;20026;-63
2023/12/21 01:01:53;;;;;;;0.82;0.20;;;5.50;99.90;;;;;;5041374;28;20352;-62
2023/12/21 01:04:19;;;;;;;0.38;0.22;;;5.60;99.90;;;;;;5042426;28;20052;-62
2023/12/21 01:06:52;;;;;;;0.28;0.25;;;5.70;99.90;;;;;;5050299;28;20048;-62
2023/12/21 01:09:17;;;;;;;0.20;0.20;;;5.60;99.90;;;;;;5049605;28;20033;-66
2023/12/21 01:11:43;;;;;;;1.20;0.20;;;5.60;99.90;;;;;;5049120;28;20772;-62
2023/12/21 01:14:08;;;;;;;0.32;0.20;;;5.60;99.90;;;;;;5050860;28;20025;-62
2023/12/21 01:16:37;;;;;;;0.63;0.22;;;5.60;99.90;;;;;;5048851;28;20605;-62
2023/12/21 01:19:02;;;;;;;0.77;0.10;;;5.60;99.90;;;;;;5050264;28;20021;-62
2023/12/21 01:21:28;;;;;;;1.40;0.38;;;5.60;99.90;;;;;;5051522;28;20542;-62
2023/12/21 01:23:59;;;;;;;0.77;0.25;;;5.70;99.90;;;;;;5054237;28;20029;-62
2023/12/21 01:26:26;;;;;;;0.85;0.20;;;5.70;99.90;;;;;;5052975;28;20051;-62
2023/12/21 01:28:51;;;;;;;1.20;0.40;;;5.70;99.90;;;;;;5054197;28;20078;-62
2023/12/21 01:31:22;;;;;;;0.35;0.17;;;5.70;99.90;;;;;;5035000;28;20045;-63
2023/12/21 01:33:48;;;;;;;0.20;0.10;;;5.70;99.90;;;;;;5053810;28;20037;-62
2023/12/21 01:36:25;;;;;;;0.93;0.30;;;5.70;99.90;;;;;;5053821;28;20051;-63
2023/12/21 01:38:50;;;;;;;0.35;0.20;;;5.80;99.90;;;;;;5043600;28;20029;-62
2023/12/21 01:41:21;;;;;;;1.33;0.30;;;5.70;99.90;;;;;;5053469;28;20032;-64
2023/12/21 01:43:46;;;;;;;1.48;0.20;;;5.80;99.90;;;;;;5053625;28;20033;-62
2023/12/21 01:46:12;;;;;;;0.50;0.20;;;5.80;99.90;;;;;;5054066;28;20393;-63
2023/12/21 01:48:45;;;;;;;0.70;0.20;;;5.90;99.90;;;;;;5052646;28;20029;-62
2023/12/21 01:51:11;;;;;;;1.38;0.20;;;5.90;99.90;;;;;;5054232;28;20477;-62
2023/12/21 01:53:39;;;;;;;1.65;0.20;;;5.90;99.90;;;;;;5052459;28;20021;-62
2023/12/21 01:56:08;;;;;;;0.65;0.20;;;5.90;99.90;;;;;;5053774;28;20033;-63
2023/12/21 01:58:40;;;;;;;2.67;0.25;;;6.00;99.90;;;;;;5052653;28;20864;-62
2023/12/21 02:01:14;;;;;;;1.08;0.20;;;5.90;99.90;;;;;;5053548;28;20461;-62
2023/12/21 02:03:39;;;;;;;0.65;0.15;;;5.90;99.90;;;;;;5052808;28;20033;-62
2023/12/21 02:06:08;;;;;;;0.73;0.40;;;5.90;99.90;;;;;;5053240;28;20045;-62
2023/12/21 02:08:34;;;;;;;1.45;0.10;;;5.90;99.90;;;;;;5052231;28;20095;-62
2023/12/21 02:11:05;;;;;;;0.75;0.10;;;5.90;99.90;;;;;;5053689;28;20112;-62
2023/12/21 02:13:50;;;;;;;0.73;0.10;;;5.90;99.90;;;;;;5052205;28;20091;-62
2023/12/21 02:16:59;;;;;;;1.63;0.20;;;6.00;99.90;;;;;;5038221;28;20041;-63
2023/12/21 02:19:34;;;;;;;2.58;0.17;;;6.00;99.90;;;;;;5040234;28;20394;-62
2023/12/21 02:22:01;;;;;;;0.00;0.00;;;6.00;99.90;;;;;;5052942;28;20025;-62
2023/12/21 02:24:27;;;;;;;0.10;0.10;;;6.00;99.90;;;;;;5052232;28;20043;-62
2023/12/21 02:26:53;;;;;;;0.10;0.10;;;6.10;99.90;;;;;;5053069;28;20505;-62
2023/12/21 02:29:18;;;;;;;0.20;0.10;;;6.10;99.90;;;;;;5052375;28;20470;-62
2023/12/21 02:31:44;;;;;;;1.40;0.20;;;6.10;99.90;;;;;;5050974;28;20449;-62
2023/12/21 02:34:12;;;;;;;0.32;0.10;;;6.10;99.90;;;;;;5035153;28;20029;-62
2023/12/21 02:36:40;;;;;;;0.93;0.75;;;6.20;99.90;;;;;;5051713;28;20045;-62
2023/12/21 02:39:05;;;;;;;0.30;0.10;;;6.20;99.90;;;;;;5053130;28;20025;-62
2023/12/21 02:41:34;;;;;;;0.95;0.10;;;6.10;99.90;;;;;;5051868;28;20039;-62
2023/12/21 02:44:05;;;;;;;0.00;0.00;;;6.10;99.90;;;;;;5052082;28;20103;-62
2023/12/21 02:46:37;;;;;;;0.52;0.20;;;6.20;99.90;;;;;;5051479;28;20033;-62
2023/12/21 02:49:11;;;;;;;1.00;0.00;;;6.20;99.90;;;;;;5053170;28;20092;-62
2023/12/21 02:51:40;;;;;;;0.10;0.10;;;6.30;99.90;;;;;;5050988;28;20028;-62
2023/12/21 02:54:05;;;;;;;0.20;0.10;;;6.20;99.90;;;;;;5052950;28;20091;-62
2023/12/21 02:56:31;;;;;;;1.05;0.10;;;6.30;99.90;;;;;;5051238;28;20037;-62
2023/12/21 02:58:56;;;;;;;0.38;0.10;;;6.30;99.90;;;;;;5053306;28;20386;-62
2023/12/21 03:01:27;;;;;;;0.60;0.10;;;6.30;99.90;;;;;;5050993;28;20100;-62
2023/12/21 03:03:54;;;;;;;0.00;0.00;;;6.30;99.90;;;;;;5052709;28;20021;-62
2023/12/21 03:06:20;;;;;;;0.45;0.00;;;6.30;99.90;;;;;;5050219;28;20048;-62
2023/12/21 03:08:45;;;;;;;0.30;0.10;;;6.30;99.90;;;;;;5052605;28;20025;-62
2023/12/21 03:11:14;;;;;;;0.17;0.10;;;6.30;99.90;;;;;;5052536;28;20488;-62
2023/12/21 03:13:39;;;;;;;0.60;0.10;;;6.30;99.90;;;;;;5051528;28;20029;-62
2023/12/21 03:16:09;;;;;;;1.00;0.05;;;6.30;99.90;;;;;;5052300;28;20036;-62
2023/12/21 03:18:43;;;;;;;0.07;0.07;;;6.30;99.90;;;;;;5050790;28;20236;-62
2023/12/21 03:21:15;;;;;;;0.35;0.10;;;6.30;99.90;;;;;;5052079;28;20029;-62
2023/12/21 03:24:02;;;;;;;0.93;0.00;;;6.40;99.90;;;;;;5051802;28;20029;-62
2023/12/21 03:26:28;;;;;;;0.00;0.00;;;6.40;99.90;;;;;;5050678;28;20436;-62
2023/12/21 03:28:56;;;;;;;0.20;0.10;;;6.40;99.90;;;;;;5052788;28;20029;-62
2023/12/21 03:31:24;;;;;;;0.05;0.00;;;6.30;99.90;;;;;;5050028;28;20045;-62
2023/12/21 03:33:50;;;;;;;0.10;0.00;;;6.30;99.90;;;;;;5051833;28;20060;-62
2023/12/21 03:36:21;;;;;;;0.22;0.00;;;6.30;99.90;;;;;;5051279;28;20457;-63
2023/12/21 03:38:54;;;;;;;0.00;0.00;;;6.30;99.90;;;;;;5052136;28;20031;-62
2023/12/21 03:41:23;;;;;;;0.38;0.10;;;6.30;99.90;;;;;;5050535;28;20036;-62
2023/12/21 03:43:48;;;;;;;0.28;0.10;;;6.40;99.90;;;;;;5052223;28;20475;-62
2023/12/21 03:46:17;;;;;;;0.52;0.10;;;6.40;99.90;;;;;;5051147;28;20067;-63
2023/12/21 03:48:45;;;;;;;1.02;0.20;;;6.40;99.90;;;;;;5051525;28;20024;-62
2023/12/21 03:51:11;;;;;;;0.45;0.10;;;6.30;99.90;;;;;;5051245;28;20087;-62
2023/12/21 03:53:37;;;;;;;0.10;0.08;;;6.30;99.90;;;;;;5032665;28;20025;-62
2023/12/21 03:56:05;;;;;;;1.48;0.05;;;6.30;99.90;;;;;;5051482;28;20107;-62
2023/12/21 03:58:42;;;;;;;0.50;0.10;;;6.40;99.90;;;;;;5049904;28;20028;-62
2023/12/21 04:01:10;;;;;;;2.63;0.10;;;6.40;99.90;;;;;;5051267;28;20021;-62
2023/12/21 04:03:45;;;;;;;0.32;0.03;;;6.40;99.90;;;;;;5050065;28;20060;-62
2023/12/21 04:06:15;;;;;;;0.00;0.00;;;6.40;99.90;;;;;;5050850;28;20037;-62
2023/12/21 04:08:48;;;;;;;0.00;0.00;;;6.50;99.90;;;;;;5050921;28;20040;-62
2023/12/21 04:11:14;;;;;;;0.00;0.00;;;6.50;99.90;;;;;;5050884;28;20167;-65
2023/12/21 04:13:40;;;;;;;0.55;0.00;;;6.50;99.90;;;;;;5043974;28;20096;-63
2023/12/21 04:16:10;;;;;;;0.15;0.05;;;6.40;99.90;;;;;;5027712;28;20104;-62
2023/12/21 04:18:39;;;;;;;0.08;0.00;;;6.40;99.90;;;;;;5048633;28;20198;-63
2023/12/21 04:21:10;;;;;;;0.30;0.08;;;6.40;99.90;;;;;;5051431;28;20033;-62
2023/12/21 04:23:45;;;;;;;0.20;0.00;;;6.30;99.90;;;;;;5049934;28;20041;-62
2023/12/21 04:26:23;;;;;;;0.00;0.00;;;6.20;99.90;;;;;;5051103;28;20032;-62
2023/12/21 04:28:57;;;;;;;0.30;0.13;;;6.10;99.90;;;;;;5035671;28;20028;-62
2023/12/21 04:31:26;;;;;;;0.57;0.10;;;6.10;99.90;;;;;;5049072;28;20048;-62
2023/12/21 04:33:58;;;;;;;0.10;0.00;;;6.10;99.90;;;;;;5051360;28;20029;-62
2023/12/21 04:36:24;;;;;;;0.17;0.00;;;6.20;99.90;;;;;;5049837;28;20037;-62
2023/12/21 04:38:50;;;;;;;0.00;0.00;;;6.10;99.90;;;;;;5051306;28;20428;-62
2023/12/21 04:41:15;;;;;;;0.40;0.10;;;6.20;99.90;;;;;;5050111;28;20025;-63
2023/12/21 04:43:41;;;;;;;1.58;0.10;;;6.10;99.90;;;;;;5050206;28;20025;-62
2023/12/21 04:46:11;;;;;;;0.68;0.20;;;6.10;99.90;;;;;;5033116;28;20064;-62
2023/12/21 04:48:37;;;;;;;0.10;0.00;;;6.10;99.90;;;;;;5049580;28;20120;-62
2023/12/21 04:51:02;;;;;;;0.25;0.10;;;6.10;99.90;;;;;;5051273;28;20423;-62
2023/12/21 04:53:38;;;;;;;0.35;0.08;;;6.10;99.90;;;;;;5055939;28;20021;-63
2023/12/21 04:56:06;;;;;;;0.38;0.00;;;6.10;99.90;;;;;;5062851;28;20041;-62
2023/12/21 04:58:32;;;;;;;0.20;0.10;;;6.10;99.90;;;;;;5062346;28;20039;-62
2023/12/21 05:00:57;;;;;;;0.38;0.22;;;6.10;99.90;;;;;;5057836;28;20117;-62
2023/12/21 05:03:23;;;;;;;0.85;0.20;;;6.10;99.90;;;;;;5054538;28;20075;-62
2023/12/21 05:06:00;;;;;;;0.10;0.10;;;6.10;99.90;;;;;;5059997;28;20055;-63
2023/12/21 05:08:28;;;;;;;0.60;0.10;;;6.20;99.90;;;;;;5058633;28;20529;-62
2023/12/21 05:10:55;;;;;;;0.10;0.10;;;6.20;99.90;;;;;;5055007;28;20052;-62
2023/12/21 05:13:29;;;;;;;0.52;0.10;;;6.20;99.90;;;;;;5052906;28;20505;-62
2023/12/21 05:15:58;;;;;;;0.10;0.10;;;6.20;99.90;;;;;;5054812;28;20028;-62
2023/12/21 05:18:23;;;;;;;0.08;0.08;;;6.30;99.90;;;;;;5052912;28;20048;-62
2023/12/21 05:20:51;;;;;;;0.10;0.10;;;6.30;99.90;;;;;;5054451;28;20458;-62
2023/12/21 05:23:17;;;;;;;0.22;0.10;;;6.30;99.90;;;;;;5053185;28;20017;-62
2023/12/21 05:25:45;;;;;;;0.65;0.10;;;6.20;99.90;;;;;;5054158;28;20083;-62
2023/12/21 05:28:13;;;;;;;0.00;0.00;;;6.30;99.90;;;;;;5053699;28;20040;-62
2023/12/21 05:30:42;;;;;;;0.00;0.00;;;6.30;99.90;;;;;;5053646;28;20029;-62
2023/12/21 05:33:08;;;;;;;1.08;0.05;;;6.30;99.90;;;;;;5052894;28;20094;-62
2023/12/21 05:35:38;;;;;;;0.20;0.10;;;6.30;99.90;;;;;;5053409;28;20517;-62
2023/12/21 05:38:14;;;;;;;0.20;0.00;;;6.30;99.90;;;;;;5054032;28;20029;-62
2023/12/21 05:40:48;;;;;;;0.65;0.10;;;6.30;99.90;;;;;;5054340;28;20052;-62
2023/12/21 05:43:13;;;;;;;0.30;0.10;;;6.30;99.90;;;;;;5052861;28;20028;-63
2023/12/21 05:45:45;;;;;;;0.45;0.10;;;6.30;99.90;;;;;;5053367;28;20025;-62
2023/12/21 05:48:11;;;;;;;0.85;0.10;;;6.30;99.90;;;;;;5053331;28;20458;-65
2023/12/21 05:50:39;;;;;;;0.10;0.10;;;6.30;99.90;;;;;;5053228;28;20037;-62
2023/12/21 05:53:06;;;;;;;0.10;0.10;;;6.40;99.90;;;;;;5045595;28;20021;-62
2023/12/21 05:55:31;;;;;;;0.38;0.10;;;6.40;99.90;;;;;;5048489;28;20407;-62
2023/12/21 05:57:59;;;;;;;0.43;0.30;;;6.40;99.90;;;;;;5053730;28;20104;-63
2023/12/21 06:00:30;;;;;;;0.00;0.00;;;6.40;99.90;;;;;;5038751;28;20041;-65
2023/12/21 06:02:58;;;;;;;0.10;0.10;;;6.40;99.90;;;;;;5052592;28;20021;-68
2023/12/21 06:05:24;;;;;;;0.10;0.10;;;6.40;99.90;;;;;;5051609;28;20139;-69
2023/12/21 06:07:49;;;;;;;0.52;0.10;;;6.50;99.90;;;;;;5051158;28;20474;-62
2023/12/21 06:10:25;;;;;;;0.13;0.00;;;6.50;99.90;;;;;;5040096;28;20108;-68
2023/12/21 06:12:54;;;;;;;0.70;0.10;;;6.50;99.90;;;;;;5043104;28;20071;-62
2023/12/21 06:15:22;;;;;;;0.10;0.10;;;6.50;99.90;;;;;;5045164;28;20123;-63
2023/12/21 06:17:51;;;;;;;0.25;0.10;;;6.50;99.90;;;;;;5052038;28;20120;-62
2023/12/21 06:20:17;;;;;;;0.32;0.10;;;6.50;99.90;;;;;;5036956;28;20037;-62
2023/12/21 06:22:42;;;;;;;0.10;0.10;;;6.50;99.90;;;;;;5052781;28;20021;-62
2023/12/21 06:25:15;;;;;;;0.30;0.00;;;6.50;99.90;;;;;;5028203;28;20029;-62
2023/12/21 06:27:44;;;;;;;0.70;0.20;;;6.50;99.90;;;;;;5052648;28;20029;-64
2023/12/21 06:30:13;;;;;;;0.10;0.10;;;6.50;99.90;;;;;;5039447;28;20041;-66
2023/12/21 06:32:41;;;;;;;0.65;0.00;;;6.50;99.90;;;;;;5050693;28;20063;-65
2023/12/21 06:35:07;;;;;;;0.10;0.10;;;6.50;99.90;;;;;;5046577;28;20029;-64
2023/12/21 06:37:46;;;;;;;0.30;0.03;;;6.50;99.90;;;;;;5051704;28;20078;-64
2023/12/21 06:40:16;;;;;;;0.20;0.10;;;6.60;99.90;;;;;;5036167;28;20034;-65
2023/12/21 06:42:42;;;;;;;;;;;6.60;99.90;;;;;;5052699;28;20462;-64
2023/12/21 06:45:08;;;;;;;0.50;0.25;;;6.50;99.90;;;;;;5047309;28;19916;-64
2023/12/21 06:47:33;;;;;;;1.20;0.10;;;6.60;99.90;;;;;;5051325;28;20140;-64
2023/12/21 06:49:59;;;;;;;0.38;0.10;;;6.60;99.90;;;;;;5041892;28;20486;-64
2023/12/21 06:52:27;;;;;;;0.43;0.20;;;6.60;99.90;;;;;;5048893;28;20102;-64
2023/12/21 06:54:56;;;;;;;0.00;0.00;;;6.60;99.90;;;;;;5047315;28;20025;-63
2023/12/21 06:57:29;;;;;;;0.13;0.13;;;6.70;99.90;;;;;;5051104;28;20037;-62
2023/12/21 07:00:00;;;;;;;0.03;0.00;;;6.70;99.90;;;;;;5042693;28;20406;-64
2023/12/21 07:02:35;;;;;;;0.10;0.00;;;6.70;99.90;;;;;;5046326;28;20032;-65
2023/12/21 07:05:01;;;;;;;0.10;0.10;;;6.70;99.90;;;;;;5048705;28;20029;-64
2023/12/21 07:07:44;;;;;;;0.57;0.20;;;6.80;99.90;;;;;;5051006;28;20036;-64
2023/12/21 07:10:18;;;;;;;0.43;0.17;;;6.80;99.90;;;;;;5041175;28;20057;-64
2023/12/21 07:12:45;;;;;;;0.68;0.20;;;6.80;99.90;;;;;;5035664;28;20024;-64
2023/12/21 07:15:11;;;;;;;0.28;0.13;;;6.90;99.90;;;;;;5049602;28;20060;-64
2023/12/21 07:17:37;;;;;;;1.20;0.17;;;6.90;99.90;;;;;;5050508;28;20060;-64
2023/12/21 07:20:03;;;;;;;0.35;0.20;;;6.90;99.90;;;;;;5041922;28;20549;-64
2023/12/21 07:22:31;;;;;;;0.20;0.10;;;6.90;99.90;;;;;;5049343;28;20067;-64
2023/12/21 07:25:11;;;;;;;3.13;0.30;;;7.00;99.90;;;;;;5048703;28;20021;-64
2023/12/21 07:27:40;;;;;;;0.47;0.17;;;6.90;99.90;;;;;;5050564;28;20091;-64
2023/12/21 07:30:07;;;;;;;0.63;0.10;;;7.00;99.90;;;;;;5042409;28;20034;-64
2023/12/21 07:32:36;;;;;;;0.10;0.10;;;7.00;99.90;;;;;;5048136;28;20612;-65
2023/12/21 07:35:04;;;;;;;0.28;0.10;;;7.00;99.90;;;;;;5048388;28;20381;-65
2023/12/21 07:37:29;;;;;;;0.20;0.13;;;7.00;99.90;;;;;;5050589;28;20663;-66
2023/12/21 07:40:04;;;;;;;0.10;0.10;;;7.00;99.90;;;;;;5044118;28;20033;-66
2023/12/21 07:42:32;;;;;;;0.52;0.20;;;7.00;99.90;;;;;;5048878;28;20029;-66
2023/12/21 07:44:58;;;;;;;0.73;0.30;;;7.10;99.90;;;;;;5049465;28;20033;-65
2023/12/21 07:47:23;;;;;;;1.08;0.20;;;7.10;99.90;;;;;;5050389;28;20079;-65
2023/12/21 07:49:49;;;;;;;1.45;0.22;;;7.10;99.90;;;;;;5045422;28;20038;-66
2023/12/21 07:52:17;;;;;;;0.82;0.30;;;7.10;99.90;;;;;;5046843;28;20047;-67
2023/12/21 07:54:46;;;;;;;1.77;0.00;;;7.10;99.90;;;;;;5049863;28;20080;-66
2023/12/21 07:57:17;;;;;;;0.47;0.10;;;7.10;99.90;;;;;;5051218;28;20035;-65
2023/12/21 07:59:43;;;;;;;0.20;0.10;;;7.10;99.90;;;;;;5046609;28;20032;-65
2023/12/21 08:02:12;;;;;;;0.20;0.10;;;7.10;99.90;;;;;;5049980;28;20029;-65
2023/12/21 08:04:37;;;;;;;0.55;0.10;;;7.10;99.90;;;;;;5047173;28;20041;-65
2023/12/21 08:07:03;;;;;;;0.13;0.13;;;7.20;99.90;;;;;;5050717;28;20025;-65
2023/12/21 08:09:29;;;;;;;0.10;0.10;;;7.20;99.90;;;;;;5048320;28;20083;-65
2023/12/21 08:11:57;;;;;;;1.08;0.20;;;7.20;99.90;;;;;;5044229;28;20036;-65
2023/12/21 08:14:31;;;;;;;0.25;0.20;;;7.20;99.90;;;;;;5050261;28;20036;-65
2023/12/21 08:17:06;;;;;;;0.15;0.10;;;7.30;99.90;;;;;;5050976;28;20032;-65
2023/12/21 08:19:32;;;;;;;0.57;0.30;;;7.30;99.90;;;;;;5047721;28;20037;-65
2023/12/21 08:22:01;;;;;;;0.15;0.15;;;7.30;99.90;;;;;;5044562;28;20033;-66
2023/12/21 08:24:29;;;;;;;0.25;0.10;;;7.30;99.90;;;;;;5049987;28;20063;-65
2023/12/21 08:27:06;;;;;;;1.25;0.20;;;7.30;99.90;;;;;;5050683;28;20039;-65
2023/12/21 08:29:37;;;;;;;1.55;0.17;;;7.30;99.90;;;;;;5048170;28;20037;-65
2023/12/21 08:32:05;;;;;;;0.43;0.10;;;7.30;99.90;;;;;;5043823;28;20107;-65
2023/12/21 08:34:34;;;;;;;0.20;0.20;;;7.40;99.90;;;;;;5038144;28;20040;-65
2023/12/21 08:37:02;;;;;;;0.15;0.10;;;7.40;99.90;;;;;;5035531;28;20021;-65
2023/12/21 08:39:39;;;;;;;0.10;0.10;;;7.40;99.90;;;;;;5048652;28;20029;-65
2023/12/21 08:42:10;;;;;;;0.40;0.10;;;7.40;99.90;;;;;;5044884;28;20040;-64
2023/12/21 08:44:54;;;;;;;1.85;0.40;;;7.40;99.90;;;;;;5046312;28;20032;-65
2023/12/21 08:47:22;;;;;;;0.20;0.10;;;7.40;99.90;;;;;;5040032;28;20034;-63
2023/12/21 08:49:48;;;;;;;1.25;0.25;;;7.50;99.90;;;;;;5040467;28;20044;-64
2023/12/21 08:52:13;;;;;;;0.25;0.10;;;7.50;99.90;;;;;;5045567;28;20041;-65
2023/12/21 08:54:41;;;;;;;0.10;0.10;;;7.50;99.90;;;;;;5048810;28;20021;-64
2023/12/21 08:57:07;;;;;;;0.75;0.13;;;7.50;99.90;;;;;;5038152;28;20061;-65
2023/12/21 08:59:43;;;;;;;0.30;0.20;;;7.40;99.90;;;;;;5049343;28;20025;-65
2023/12/21 09:02:13;;;;;;;0.82;0.20;;;7.50;99.90;;;;;;5040956;28;20075;-65
2023/12/21 09:04:39;;;;;;;2.33;0.38;;;7.50;99.90;;;;;;5047129;28;20021;-64
2023/12/21 09:07:04;;;;;;;0.20;0.13;;;7.50;99.90;;;;;;5033766;28;20389;-66
2023/12/21 09:09:31;;;;;;;1.23;0.10;;;7.50;99.90;;;;;;5048997;28;20072;-64
2023/12/21 09:12:00;;;;;;;0.20;0.20;;;7.50;99.90;;;;;;5044209;28;20485;-65
2023/12/21 09:14:29;;;;;;;0.68;0.20;;;7.50;99.90;;;;;;5031124;28;20037;-66
2023/12/21 09:17:04;;;;;;;1.60;0.25;;;7.50;99.90;;;;;;5036308;28;20033;-66
2023/12/21 09:19:29;;;;;;;0.85;0.35;;;7.50;99.90;;;;;;5049694;28;20025;-67
2023/12/21 09:21:58;;;;;;;1.10;0.47;;;7.50;99.90;;;;;;5048208;28;20071;-65
2023/12/21 09:24:24;;;;;;;0.98;0.10;;;7.60;99.90;;;;;;5031782;28;20453;-66
2023/12/21 09:26:52;;;;;;;0.50;0.17;;;7.60;99.90;;;;;;5037297;28;20065;-66
2023/12/21 09:29:20;;;;;;;0.65;0.10;;;7.60;99.90;;;;;;5049914;28;20029;-65
2023/12/21 09:31:46;;;;;;;0.10;0.10;;;7.70;99.90;;;;;;5046058;28;20049;-64
2023/12/21 09:34:14;;;;;;;0.85;0.43;;;7.70;99.90;;;;;;5049726;28;20048;-67
2023/12/21 09:36:43;;;;;;;0.50;0.10;;;7.70;99.90;;;;;;5036426;28;20108;-65
2023/12/21 09:39:12;;;;;;;0.40;0.20;;;7.70;99.90;;;;;;5050557;28;20029;-66
2023/12/21 09:41:38;;;;;;;1.48;0.20;;;7.80;99.90;;;;;;5039328;28;20055;-65
2023/12/21 09:44:10;;;;;;;1.65;0.20;;;7.80;99.90;;;;;;5046730;28;20462;-64
2023/12/21 09:46:39;;;;;;;0.90;0.20;;;7.80;99.90;;;;;;5047337;28;20036;-64
2023/12/21 09:49:12;;;;;;;0.63;0.13;;;7.90;99.90;;;;;;5050054;28;20037;-66
2023/12/21 09:51:54;;;;;;;0.30;0.10;;;8.00;99.90;;;;;;5041367;28;20029;-65
2023/12/21 09:54:23;;;;;;;0.10;0.10;;;8.00;99.90;;;;;;5052666;28;20108;-66
2023/12/21 09:56:58;;;;;;;0.10;0.10;;;8.10;99.90;;;;;;5050049;28;20083;-65
2023/12/21 09:59:30;;;;;;;0.10;0.00;;;8.10;99.90;;;;;;5036327;28;20168;-66
2023/12/21 10:01:58;;;;;;;0.08;0.08;;;8.10;99.90;;;;;;5042083;28;20036;-65
2023/12/21 10:04:25;;;;;;;0.20;0.20;;;8.20;99.90;;;;;;5050169;28;20132;-66
2023/12/21 10:06:56;;;;;;;1.02;0.28;;;8.30;99.90;;;;;;5050260;28;20040;-65
2023/12/21 10:09:31;;;;;;;0.60;0.30;;;8.30;99.90;;;;;;5052670;28;20371;-66
2023/12/21 10:12:00;;;;;;;0.88;0.20;;;8.30;99.90;;;;;;5042660;28;20083;-65
2023/12/21 10:14:29;;;;;;;0.30;0.10;;;8.30;99.90;;;;;;5052690;28;20032;-66
2023/12/21 10:17:15;;;;;;;1.00;0.20;;;8.30;99.90;;;;;;5051199;28;20024;-65
2023/12/21 10:19:44;;;;;;;0.22;0.10;;;8.30;99.90;;;;;;5052778;28;20033;-66
2023/12/21 10:22:15;;;;;;;0.65;0.20;;;8.30;99.90;;;;;;5044352;28;20029;-65
2023/12/21 10:24:47;;;;;;;0.10;0.10;;;8.30;99.90;;;;;;5053328;28;20033;-65
2023/12/21 10:27:16;;;;;;;1.13;0.28;;;8.30;99.90;;;;;;5051417;28;20071;-67
2023/12/21 10:29:42;;;;;;;0.40;0.20;;;8.40;99.90;;;;;;5036849;28;20463;-66
2023/12/21 10:32:16;;;;;;;0.40;0.22;;;8.50;99.90;;;;;;5042922;28;20097;-65
2023/12/21 10:34:58;;;;;;;1.08;0.32;;;8.50;99.90;;;;;;5053054;28;20032;-66
2023/12/21 10:37:27;;;;;;;1.17;0.20;;;8.50;99.90;;;;;;5049630;28;20040;-65
2023/12/21 10:39:58;;;;;;;0.20;0.10;;;8.50;99.90;;;;;;5052917;28;20120;-65
2023/12/21 10:42:26;;;;;;;0.05;0.05;;;8.60;99.90;;;;;;5043128;28;20386;-65
2023/12/21 10:44:59;;;;;;;0.93;0.30;;;8.60;99.90;;;;;;5052660;28;20022;-66
2023/12/21 10:47:25;;;;;;;1.85;0.10;;;8.50;99.90;;;;;;5034714;28;20393;-66
2023/12/21 10:49:53;;;;;;;0.65;0.20;;;8.60;99.90;;;;;;5052881;28;20021;-65
2023/12/21 10:52:22;;;;;;;0.35;0.20;;;8.60;99.90;;;;;;5042769;28;20033;-69
2023/12/21 15:13:57;;;;;;;0.30;0.20;;;8.60;99.90;;;;;;5241127;23;20021;-68
2023/12/21 15:16:25;;;;;;;0.50;0.20;;;8.60;99.90;;;;;;4956182;28;20193;-69
2023/12/21 15:18:50;;;;;;;0.45;0.30;;;8.60;99.90;;;;;;4960205;28;20038;-69
2023/12/21 15:21:19;;;;;;;0.47;0.30;;;;;;;;;;4968675;28;20023;-70
2023/12/21 15:23:47;;;;;;;0.22;0.20;;;8.70;99.90;;;;;;4963367;28;20047;-69
2023/12/21 15:26:15;;;;;;;0.82;0.20;;;;;;;;;;4963554;28;20042;-69
2023/12/21 15:28:44;;;;;;;0.20;0.20;;;;;;;;;;4971323;28;20122;-69
2023/12/21 15:31:16;;;;;;;0.30;0.30;;;;;;;;;;4980669;28;20031;-69
2023/12/21 15:33:55;;;;;;;1.40;0.17;;;;;;;;;;4965855;28;20582;-70
2023/12/21 15:36:33;;;;;;;0.32;0.30;;;;;;;;;;4967915;28;20065;-70
2023/12/21 15:39:13;;;;;;;1.35;0.30;;;;;;;;;;4969242;28;20050;-70
2023/12/21 15:41:39;;;;;;;0.40;0.30;;;8.70;99.90;;;;;;4957705;28;20027;-72
2023/12/21 15:44:04;;;;;;;0.82;0.28;;;8.80;99.90;;;;;;4959109;28;20031;-70
2023/12/21 15:46:30;;;;;;;0.20;0.10;;;8.70;99.90;;;;;;4965211;28;20163;-71
2023/12/21 15:48:55;;;;;;;0.52;0.20;;;8.70;99.90;;;;;;4963590;28;20031;-71
2023/12/21 15:51:21;;;;;;;0.73;0.30;;;8.80;99.90;;;;;;4958771;28;20043;-71
2023/12/21 15:53:47;;;;;;;0.25;0.25;;;8.70;99.90;;;;;;4966300;28;20022;-70
2023/12/21 15:56:12;;;;;;;0.20;0.20;;;8.70;99.90;;;;;;4971074;28;20035;-71
2023/12/21 15:58:38;;;;;;;0.65;0.10;;;8.70;99.90;;;;;;4961621;28;20044;-71
2023/12/21 16:01:04;;;;;;;0.20;0.10;;;8.70;99.90;;;;;;4961928;28;20019;-71
2023/12/21 16:03:30;;;;;;;0.20;0.20;;;8.60;99.90;;;;;;4967220;28;20070;-71
2023/12/21 16:05:56;;;;;;;3.10;0.38;;;8.60;99.90;;;;;;4963404;28;20527;-69
2023/12/21 16:08:23;;;;;;;0.50;0.28;;;8.50;99.90;;;;;;4959464;28;20077;-69
2023/12/21 16:10:48;;;;;;;2.65;0.47;;;8.50;99.90;;;;;;4967215;28;20031;-69
2023/12/21 16:13:14;;;;;;;1.48;0.20;;;8.40;99.90;;;;;;4964564;28;20380;-69
2023/12/21 16:15:40;;;;;;;1.42;0.25;;;8.40;99.90;;;;;;4958118;28;20741;-69
2023/12/21 16:18:06;;;;;;;1.20;0.30;;;8.50;99.90;;;;;;4971018;28;20023;-68
2023/12/21 16:20:32;;;;;;;0.28;0.20;;;8.40;99.90;;;;;;4966878;28;20097;-69
2023/12/21 16:22:58;;;;;;;0.80;0.30;;;8.40;99.90;;;;;;4965133;28;20031;-69
2023/12/21 16:25:24;;;;;;;0.20;0.20;;;8.40;99.90;;;;;;4959484;28;20023;-69
2023/12/21 16:27:49;;;;;;;1.00;0.30;;;8.40;99.90;;;;;;4968358;28;20031;-69
2023/12/21 16:30:17;;;;;;;0.15;0.15;;;8.50;99.90;;;;;;4968605;28;20046;-70
2023/12/21 16:32:47;;;;;;;0.20;0.20;;;8.50;99.90;;;;;;4959480;28;20379;-70
2023/12/21 16:35:15;;;;;;;1.48;0.55;;;8.50;99.90;;;;;;4971396;28;20031;-69
2023/12/21 16:37:41;;;;;;;1.75;0.47;;;8.50;99.90;;;;;;4971766;28;20042;-69
2023/12/21 16:40:08;;;;;;;0.57;0.47;;;8.50;99.90;;;;;;4959935;28;20034;-69
2023/12/21 16:42:33;;;;;;;1.00;0.25;;;8.40;99.90;;;;;;4966954;28;20038;-70
2023/12/21 16:45:00;;;;;;;2.25;0.50;;;8.30;99.90;;;;;;4969603;28;20468;-70
2023/12/21 16:47:26;;;;;;;0.90;0.40;;;8.30;99.90;;;;;;4969588;28;20037;-70
2023/12/21 16:49:51;;;;;;;2.25;0.60;;;8.20;99.90;;;;;;4964258;28;20035;-70
2023/12/21 16:52:17;;;;;;;1.58;0.65;;;8.20;99.90;;;;;;4963289;28;20058;-69
2023/12/21 16:54:42;;;;;;;0.52;0.50;;;8.10;99.90;;;;;;4959843;28;20487;-70
2023/12/21 16:57:08;;;;;;;0.68;0.47;;;8.00;99.90;;;;;;4961598;28;20031;-69
2023/12/21 16:59:33;;;;;;;1.00;0.47;;;8.00;99.90;;;;;;4966789;28;20026;-70
2023/12/21 17:01:59;;;;;;;0.43;0.43;;;8.00;99.90;;;;;;4967432;28;20022;-70
2023/12/21 17:04:25;;;;;;;4.30;1.90;;;7.90;99.90;;;;;;4956489;28;20050;-70
2023/12/21 17:06:51;;;;;;;2.20;0.80;;;8.00;99.90;;;;;;4959318;28;20074;-69
2023/12/21 17:09:16;;;;;;;1.38;0.43;;;8.00;99.90;;;;;;4965407;28;20118;-70
2023/12/21 17:11:42;;;;;;;0.40;0.28;;;8.10;99.90;;;;;;4971602;28;20505;-69
2023/12/21 17:14:07;;;;;;;1.98;0.70;;;8.20;99.90;;;;;;4961363;28;20031;-69
2023/12/21 17:16:33;;;;;;;0.77;0.40;;;8.20;99.90;;;;;;4962711;28;20113;-69
2023/12/21 17:18:59;;;;;;;2.53;0.75;;;8.40;99.90;;;;;;4970424;28;20027;-69
2023/12/21 17:21:25;;;;;;;0.57;0.43;;;8.40;99.90;;;;;;4963260;28;20050;-70
2023/12/21 17:23:51;;;;;;;3.75;0.55;;;8.50;99.90;;;;;;4964423;28;20032;-69
2023/12/21 17:26:17;;;;;;;0.65;0.40;;;8.40;99.90;;;;;;4963281;28;20154;-69